sensor_id;sensor_type;location;lat;lon;timestamp;pressure;altitude;pressure_sealevel;temperature;humidity
20889;BME280;10604;51.976;7.594;2023-12-29T00:02:01;99987.28;;;22.35;37.46
20889;BME280;10604;51.976;7.594;2023-12-29T00:04:26;99979.81;;;22.86;36.85
20889;BME280;10604;51.976;7.594;2023-12-29T00:06:52;99970.19;;;23.40;36.75
20889;BME280;10604;51.976;7.594;2023-12-29T00:09:17;99974.94;;;21.73;38.06
20889;BME280;10604;51.976;7.594;2023-12-29T00:11:45;99974.84;;;22.53;37.31
20889;BME280;10604;51.976;7.594;2023-12-29T00:14:10;99978.22;;;23.13;36.47
20889;BME280;10604;51.976;7.594;2023-12-29T00:16:36;99978.47;;;22.13;37.54
20889;BME280;10604;51.976;7.594;2023-12-29T00:19:01;99976.53;;;22.35;37.75
20889;BME280;10604;51.976;7.594;2023-12-29T00:21:26;99965.97;;;21.93;38.54
20889;BME280;10604;51.976;7.594;2023-12-29T00:23:51;99970.84;;;22.09;38.57
20889;BME280;10604;51.976;7.594;2023-12-29T00:26:17;99963.66;;;21.79;38.72
20889;BME280;10604;51.976;7.594;2023-12-29T00:28:42;99968.63;;;22.62;37.91
20889;BME280;10604;51.976;7.594;2023-12-29T00:31:08;99963.56;;;22.78;37.38
20889;BME280;10604;51.976;7.594;2023-12-29T00:33:33;99956.06;;;21.94;38.31
20889;BME280;10604;51.976;7.594;2023-12-29T00:35:58;99979.09;;;22.65;37.86
20889;BME280;10604;51.976;7.594;2023-12-29T00:38:27;99967.22;;;22.58;37.47
20889;BME280;10604;51.976;7.594;2023-12-29T00:40:53;99953.31;;;22.53;37.92
20889;BME280;10604;51.976;7.594;2023-12-29T00:43:18;99957.53;;;23.03;37.49
20889;BME280;10604;51.976;7.594;2023-12-29T00:45:43;99938.31;;;22.02;37.87
20889;BME280;10604;51.976;7.594;2023-12-29T00:48:08;99967.69;;;21.33;39.39
20889;BME280;10604;51.976;7.594;2023-12-29T00:50:34;99964.63;;;23.14;36.85
20889;BME280;10604;51.976;7.594;2023-12-29T00:52:59;99963.25;;;22.81;37.82
20889;BME280;10604;51.976;7.594;2023-12-29T00:55:25;99966.34;;;22.48;37.91
20889;BME280;10604;51.976;7.594;2023-12-29T00:57:50;99967.50;;;22.93;37.03
20889;BME280;10604;51.976;7.594;2023-12-29T01:00:15;99955.88;;;22.54;37.87
20889;BME280;10604;51.976;7.594;2023-12-29T01:02:40;99943.03;;;23.33;36.74
20889;BME280;10604;51.976;7.594;2023-12-29T01:05:06;99948.22;;;22.11;38.26
20889;BME280;10604;51.976;7.594;2023-12-29T01:07:31;99940.59;;;22.74;36.66
20889;BME280;10604;51.976;7.594;2023-12-29T01:09:56;99928.41;;;22.32;37.87
20889;BME280;10604;51.976;7.594;2023-12-29T01:12:21;99942.56;;;22.53;37.74
20889;BME280;10604;51.976;7.594;2023-12-29T01:14:47;99942.16;;;23.33;36.00
20889;BME280;10604;51.976;7.594;2023-12-29T01:17:12;99954.75;;;22.38;37.21
20889;BME280;10604;51.976;7.594;2023-12-29T01:19:37;99945.13;;;22.54;38.11
20889;BME280;10604;51.976;7.594;2023-12-29T01:22:02;99929.19;;;23.19;37.03
20889;BME280;10604;51.976;7.594;2023-12-29T01:24:28;99927.75;;;21.30;39.42
20889;BME280;10604;51.976;7.594;2023-12-29T01:26:53;99941.44;;;22.07;37.77
20889;BME280;10604;51.976;7.594;2023-12-29T01:29:18;99933.53;;;22.35;38.14
20889;BME280;10604;51.976;7.594;2023-12-29T01:31:43;99922.47;;;22.18;38.45
20889;BME280;10604;51.976;7.594;2023-12-29T01:34:08;99927.72;;;22.30;38.00
20889;BME280;10604;51.976;7.594;2023-12-29T01:36:34;99928.13;;;22.54;38.08
20889;BME280;10604;51.976;7.594;2023-12-29T01:38:59;99928.41;;;22.89;37.03
20889;BME280;10604;51.976;7.594;2023-12-29T01:41:24;99927.56;;;22.60;37.79
20889;BME280;10604;51.976;7.594;2023-12-29T01:46:24;99913.72;;;22.16;38.59
20889;BME280;10604;51.976;7.594;2023-12-29T01:48:50;99930.38;;;22.68;38.10
20889;BME280;10604;51.976;7.594;2023-12-29T01:51:15;99924.47;;;22.55;38.06
20889;BME280;10604;51.976;7.594;2023-12-29T01:53:42;99909.66;;;21.82;39.01
20889;BME280;10604;51.976;7.594;2023-12-29T01:56:07;99923.59;;;23.76;36.89
20889;BME280;10604;51.976;7.594;2023-12-29T01:58:33;99941.72;;;22.91;37.92
20889;BME280;10604;51.976;7.594;2023-12-29T02:00:59;99934.84;;;21.81;40.07
20889;BME280;10604;51.976;7.594;2023-12-29T02:03:25;99956.13;;;22.13;40.53
20889;BME280;10604;51.976;7.594;2023-12-29T02:05:50;99962.97;;;22.65;40.58
20889;BME280;10604;51.976;7.594;2023-12-29T02:08:18;99949.09;;;21.41;42.85
20889;BME280;10604;51.976;7.594;2023-12-29T02:10:43;99945.69;;;22.19;41.41
20889;BME280;10604;51.976;7.594;2023-12-29T02:13:09;99935.63;;;22.60;41.06
20889;BME280;10604;51.976;7.594;2023-12-29T02:15:34;99935.44;;;23.10;40.47
20889;BME280;10604;51.976;7.594;2023-12-29T02:18:01;99945.97;;;22.36;41.24
20889;BME280;10604;51.976;7.594;2023-12-29T02:20:27;99949.75;;;21.24;43.04
20889;BME280;10604;51.976;7.594;2023-12-29T02:22:52;99941.44;;;22.26;41.90
20889;BME280;10604;51.976;7.594;2023-12-29T02:25:17;99934.84;;;21.91;42.44
20889;BME280;10604;51.976;7.594;2023-12-29T02:27:57;99917.06;;;21.49;43.96
20889;BME280;10604;51.976;7.594;2023-12-29T02:30:32;99867.91;;;22.27;41.77
20889;BME280;10604;51.976;7.594;2023-12-29T02:33:01;99891.56;;;21.74;43.01
20889;BME280;10604;51.976;7.594;2023-12-29T02:35:27;99894.97;;;21.06;43.84
20889;BME280;10604;51.976;7.594;2023-12-29T02:37:53;99902.13;;;22.06;42.93
20889;BME280;10604;51.976;7.594;2023-12-29T02:40:19;99900.81;;;21.41;43.74
20889;BME280;10604;51.976;7.594;2023-12-29T02:42:46;99914.69;;;22.54;42.05
20889;BME280;10604;51.976;7.594;2023-12-29T02:45:11;99908.34;;;22.07;43.17
20889;BME280;10604;51.976;7.594;2023-12-29T02:47:37;99904.38;;;21.61;43.29
20889;BME280;10604;51.976;7.594;2023-12-29T02:50:02;99906.91;;;22.12;42.96
20889;BME280;10604;51.976;7.594;2023-12-29T02:52:27;99908.78;;;22.21;41.98
20889;BME280;10604;51.976;7.594;2023-12-29T02:54:52;99898.72;;;22.04;42.71
20889;BME280;10604;51.976;7.594;2023-12-29T02:57:18;99893.06;;;22.46;42.21
20889;BME280;10604;51.976;7.594;2023-12-29T02:59:43;99860.72;;;21.49;43.37
20889;BME280;10604;51.976;7.594;2023-12-29T03:02:08;99863.25;;;21.51;42.82
20889;BME280;10604;51.976;7.594;2023-12-29T03:04:33;99866.41;;;21.66;42.84
20889;BME280;10604;51.976;7.594;2023-12-29T03:06:59;99866.34;;;20.86;43.71
20889;BME280;10604;51.976;7.594;2023-12-29T03:09:24;99873.66;;;20.84;44.46
20889;BME280;10604;51.976;7.594;2023-12-29T03:11:49;99875.06;;;21.29;43.21
20889;BME280;10604;51.976;7.594;2023-12-29T03:14:15;99878.63;;;22.47;41.62
20889;BME280;10604;51.976;7.594;2023-12-29T03:16:40;99876.53;;;20.92;44.26
20889;BME280;10604;51.976;7.594;2023-12-29T03:19:05;99881.09;;;21.71;43.50
20889;BME280;10604;51.976;7.594;2023-12-29T03:21:30;99880.78;;;21.55;43.58
20889;BME280;10604;51.976;7.594;2023-12-29T03:23:55;99871.75;;;21.16;43.93
20889;BME280;10604;51.976;7.594;2023-12-29T03:26:21;99871.47;;;21.59;43.28
20889;BME280;10604;51.976;7.594;2023-12-29T03:28:46;99872.28;;;20.38;44.91
20889;BME280;10604;51.976;7.594;2023-12-29T03:31:11;99876.25;;;21.56;43.93
20889;BME280;10604;51.976;7.594;2023-12-29T03:33:36;99853.69;;;21.68;43.61
20889;BME280;10604;51.976;7.594;2023-12-29T03:36:02;99856.59;;;20.85;44.45
20889;BME280;10604;51.976;7.594;2023-12-29T03:38:27;99870.56;;;20.58;45.93
20889;BME280;10604;51.976;7.594;2023-12-29T03:40:52;99864.75;;;21.04;45.84
20889;BME280;10604;51.976;7.594;2023-12-29T03:43:17;99862.00;;;20.64;45.96
20889;BME280;10604;51.976;7.594;2023-12-29T03:45:42;99878.66;;;20.67;46.14
20889;BME280;10604;51.976;7.594;2023-12-29T03:48:08;99885.00;;;21.38;44.98
20889;BME280;10604;51.976;7.594;2023-12-29T03:50:34;99861.06;;;21.05;45.22
20889;BME280;10604;51.976;7.594;2023-12-29T03:52:59;99865.69;;;20.10;46.63
20889;BME280;10604;51.976;7.594;2023-12-29T03:55:24;99881.19;;;19.84;46.51
20889;BME280;10604;51.976;7.594;2023-12-29T03:57:49;99874.50;;;20.75;45.42
20889;BME280;10604;51.976;7.594;2023-12-29T04:00:14;99870.31;;;20.82;44.90
20889;BME280;10604;51.976;7.594;2023-12-29T04:02:40;99861.41;;;20.40;45.85
20889;BME280;10604;51.976;7.594;2023-12-29T04:05:06;99868.00;;;21.28;45.21
20889;BME280;10604;51.976;7.594;2023-12-29T04:07:31;99855.31;;;21.30;45.16
20889;BME280;10604;51.976;7.594;2023-12-29T04:09:56;99848.78;;;20.72;45.91
20889;BME280;10604;51.976;7.594;2023-12-29T04:12:21;99862.47;;;20.99;45.68
20889;BME280;10604;51.976;7.594;2023-12-29T04:14:47;99853.00;;;20.44;46.31
20889;BME280;10604;51.976;7.594;2023-12-29T04:17:12;99851.47;;;20.51;45.44
20889;BME280;10604;51.976;7.594;2023-12-29T04:19:39;99854.03;;;20.74;45.70
20889;BME280;10604;51.976;7.594;2023-12-29T04:22:05;99839.84;;;20.92;44.72
20889;BME280;10604;51.976;7.594;2023-12-29T04:24:30;99847.63;;;21.16;44.80
20889;BME280;10604;51.976;7.594;2023-12-29T04:26:55;99850.81;;;22.09;42.96
20889;BME280;10604;51.976;7.594;2023-12-29T04:29:20;99831.97;;;21.21;44.68
20889;BME280;10604;51.976;7.594;2023-12-29T04:31:45;99832.56;;;22.22;42.69
20889;BME280;10604;51.976;7.594;2023-12-29T04:34:11;99846.88;;;21.44;44.41
20889;BME280;10604;51.976;7.594;2023-12-29T04:36:36;99839.03;;;22.10;43.20
20889;BME280;10604;51.976;7.594;2023-12-29T04:39:01;99846.81;;;22.33;42.32
20889;BME280;10604;51.976;7.594;2023-12-29T04:41:26;99854.78;;;21.56;43.01
20889;BME280;10604;51.976;7.594;2023-12-29T04:43:51;99854.16;;;20.72;44.71
20889;BME280;10604;51.976;7.594;2023-12-29T04:46:17;99844.19;;;21.14;44.08
20889;BME280;10604;51.976;7.594;2023-12-29T04:48:42;99846.63;;;21.76;43.26
20889;BME280;10604;51.976;7.594;2023-12-29T04:51:07;99848.06;;;21.21;43.26
20889;BME280;10604;51.976;7.594;2023-12-29T04:53:32;99841.81;;;22.76;41.41
20889;BME280;10604;51.976;7.594;2023-12-29T04:55:58;99843.56;;;22.19;41.43
20889;BME280;10604;51.976;7.594;2023-12-29T04:58:23;99849.50;;;21.94;42.55
20889;BME280;10604;51.976;7.594;2023-12-29T05:00:48;99856.59;;;22.14;42.29
20889;BME280;10604;51.976;7.594;2023-12-29T05:03:13;99859.97;;;22.36;41.34
20889;BME280;10604;51.976;7.594;2023-12-29T05:05:38;99862.19;;;21.92;42.16
20889;BME280;10604;51.976;7.594;2023-12-29T05:08:04;99837.19;;;23.06;40.29
20889;BME280;10604;51.976;7.594;2023-12-29T05:10:29;99859.22;;;21.26;42.88
20889;BME280;10604;51.976;7.594;2023-12-29T05:12:55;99850.09;;;20.78;43.52
20889;BME280;10604;51.976;7.594;2023-12-29T05:15:20;99845.81;;;21.26;43.38
20889;BME280;10604;51.976;7.594;2023-12-29T05:17:45;99852.22;;;20.84;43.60
20889;BME280;10604;51.976;7.594;2023-12-29T05:20:10;99868.34;;;21.44;42.23
20889;BME280;10604;51.976;7.594;2023-12-29T05:22:36;99846.50;;;21.78;42.17
20889;BME280;10604;51.976;7.594;2023-12-29T05:25:01;99840.91;;;21.31;42.20
20889;BME280;10604;51.976;7.594;2023-12-29T05:27:27;99845.59;;;20.57;43.92
20889;BME280;10604;51.976;7.594;2023-12-29T05:29:52;99851.47;;;20.51;43.50
20889;BME280;10604;51.976;7.594;2023-12-29T05:32:17;99854.78;;;21.16;42.85
20889;BME280;10604;51.976;7.594;2023-12-29T05:34:42;99864.03;;;21.72;41.57
20889;BME280;10604;51.976;7.594;2023-12-29T05:37:08;99845.81;;;20.96;42.44
20889;BME280;10604;51.976;7.594;2023-12-29T05:39:33;99841.97;;;21.19;42.18
20889;BME280;10604;51.976;7.594;2023-12-29T05:41:58;99842.13;;;20.66;43.15
20889;BME280;10604;51.976;7.594;2023-12-29T05:44:23;99837.88;;;20.11;43.70
20889;BME280;10604;51.976;7.594;2023-12-29T05:46:49;99849.09;;;20.79;42.88
20889;BME280;10604;51.976;7.594;2023-12-29T05:49:14;99847.19;;;21.89;41.78
20889;BME280;10604;51.976;7.594;2023-12-29T05:51:39;99855.13;;;20.71;42.99
20889;BME280;10604;51.976;7.594;2023-12-29T05:54:04;99846.63;;;21.96;40.99
20889;BME280;10604;51.976;7.594;2023-12-29T05:56:30;99857.56;;;22.13;40.66
20889;BME280;10604;51.976;7.594;2023-12-29T05:58:55;99854.53;;;21.59;40.17
20889;BME280;10604;51.976;7.594;2023-12-29T06:01:21;99854.75;;;21.36;41.13
20889;BME280;10604;51.976;7.594;2023-12-29T06:03:46;99872.16;;;21.52;41.03
20889;BME280;10604;51.976;7.594;2023-12-29T06:06:11;99876.75;;;21.30;41.36
20889;BME280;10604;51.976;7.594;2023-12-29T06:08:36;99870.94;;;20.95;42.30
20889;BME280;10604;51.976;7.594;2023-12-29T06:11:02;99864.88;;;21.73;40.48
20889;BME280;10604;51.976;7.594;2023-12-29T06:13:27;99869.31;;;22.12;40.05
20889;BME280;10604;51.976;7.594;2023-12-29T06:15:53;99865.56;;;22.90;38.51
20889;BME280;10604;51.976;7.594;2023-12-29T06:18:18;99878.34;;;22.11;39.41
20889;BME280;10604;51.976;7.594;2023-12-29T06:20:43;99878.63;;;22.47;39.42
20889;BME280;10604;51.976;7.594;2023-12-29T06:23:08;99879.34;;;22.10;40.13
20889;BME280;10604;51.976;7.594;2023-12-29T06:25:34;99882.03;;;22.20;39.63
20889;BME280;10604;51.976;7.594;2023-12-29T06:27:59;99861.25;;;21.43;39.87
20889;BME280;10604;51.976;7.594;2023-12-29T06:30:24;99867.06;;;23.02;38.44
20889;BME280;10604;51.976;7.594;2023-12-29T06:32:50;99883.47;;;21.55;40.52
20889;BME280;10604;51.976;7.594;2023-12-29T06:35:17;99889.97;;;22.21;39.59
20889;BME280;10604;51.976;7.594;2023-12-29T06:37:42;99877.66;;;20.89;40.63
20889;BME280;10604;51.976;7.594;2023-12-29T06:40:07;99884.19;;;20.76;40.91
20889;BME280;10604;51.976;7.594;2023-12-29T06:42:33;99881.53;;;20.76;40.34
20889;BME280;10604;51.976;7.594;2023-12-29T06:44:58;99885.00;;;22.36;39.14
20889;BME280;10604;51.976;7.594;2023-12-29T06:47:23;99903.81;;;22.17;39.46
20889;BME280;10604;51.976;7.594;2023-12-29T06:49:49;99888.59;;;20.77;40.38
20889;BME280;10604;51.976;7.594;2023-12-29T06:52:15;99889.56;;;21.57;39.80
20889;BME280;10604;51.976;7.594;2023-12-29T06:54:41;99884.84;;;21.99;38.96
20889;BME280;10604;51.976;7.594;2023-12-29T06:57:06;99894.94;;;22.16;39.25
20889;BME280;10604;51.976;7.594;2023-12-29T06:59:31;99899.84;;;22.50;38.35
20889;BME280;10604;51.976;7.594;2023-12-29T07:01:57;99896.94;;;21.65;39.43
20889;BME280;10604;51.976;7.594;2023-12-29T07:04:22;99896.59;;;22.08;39.13
20889;BME280;10604;51.976;7.594;2023-12-29T07:06:47;99901.53;;;22.70;38.13
20889;BME280;10604;51.976;7.594;2023-12-29T07:09:12;99885.47;;;20.71;40.62
20889;BME280;10604;51.976;7.594;2023-12-29T07:11:38;99887.09;;;21.14;40.07
20889;BME280;10604;51.976;7.594;2023-12-29T07:14:03;99891.47;;;22.91;37.71
20889;BME280;10604;51.976;7.594;2023-12-29T07:16:28;99895.47;;;21.61;39.24
20889;BME280;10604;51.976;7.594;2023-12-29T07:18:54;99895.03;;;22.63;37.97
20889;BME280;10604;51.976;7.594;2023-12-29T07:21:19;99896.94;;;21.65;39.92
20889;BME280;10604;51.976;7.594;2023-12-29T07:23:44;99892.47;;;21.94;39.57
20889;BME280;10604;51.976;7.594;2023-12-29T07:26:09;99892.78;;;22.58;37.74
20889;BME280;10604;51.976;7.594;2023-12-29T07:28:35;99894.44;;;21.92;39.32
20889;BME280;10604;51.976;7.594;2023-12-29T07:31:00;99887.94;;;21.35;40.54
20889;BME280;10604;51.976;7.594;2023-12-29T07:33:26;99885.56;;;20.91;40.87
20889;BME280;10604;51.976;7.594;2023-12-29T07:35:51;99895.28;;;21.93;39.33
20889;BME280;10604;51.976;7.594;2023-12-29T07:38:16;99896.53;;;21.29;39.98
20889;BME280;10604;51.976;7.594;2023-12-29T07:40:42;99902.88;;;21.28;40.28
20889;BME280;10604;51.976;7.594;2023-12-29T07:43:07;99902.03;;;21.77;39.90
20889;BME280;10604;51.976;7.594;2023-12-29T07:45:33;99894.78;;;21.68;40.30
20889;BME280;10604;51.976;7.594;2023-12-29T07:47:58;99889.41;;;22.08;39.69
20889;BME280;10604;51.976;7.594;2023-12-29T07:50:23;99894.44;;;21.92;39.92
20889;BME280;10604;51.976;7.594;2023-12-29T07:52:48;99883.59;;;21.54;40.05
20889;BME280;10604;51.976;7.594;2023-12-29T07:55:14;99898.00;;;22.60;39.15
20889;BME280;10604;51.976;7.594;2023-12-29T07:57:41;99898.00;;;22.41;38.88
20889;BME280;10604;51.976;7.594;2023-12-29T08:00:06;99894.31;;;21.44;40.19
20889;BME280;10604;51.976;7.594;2023-12-29T08:02:32;99909.81;;;20.89;42.02
20889;BME280;10604;51.976;7.594;2023-12-29T08:04:57;99907.63;;;21.45;41.50
20889;BME280;10604;51.976;7.594;2023-12-29T08:07:23;99899.81;;;22.59;40.92
20889;BME280;10604;51.976;7.594;2023-12-29T08:09:48;99910.50;;;21.73;42.08
20889;BME280;10604;51.976;7.594;2023-12-29T08:12:13;99898.41;;;22.84;40.78
20889;BME280;10604;51.976;7.594;2023-12-29T08:14:38;99890.72;;;21.74;42.34
20889;BME280;10604;51.976;7.594;2023-12-29T08:17:04;99891.81;;;21.62;43.05
20889;BME280;10604;51.976;7.594;2023-12-29T08:19:29;99879.38;;;23.05;41.37
20889;BME280;10604;51.976;7.594;2023-12-29T08:21:54;99887.97;;;22.04;42.55
20889;BME280;10604;51.976;7.594;2023-12-29T08:24:19;99902.75;;;21.39;44.04
20889;BME280;10604;51.976;7.594;2023-12-29T08:26:45;99896.59;;;21.48;44.19
20889;BME280;10604;51.976;7.594;2023-12-29T08:29:11;99900.97;;;21.19;44.24
20889;BME280;10604;51.976;7.594;2023-12-29T08:31:36;99916.84;;;20.81;45.59
20889;BME280;10604;51.976;7.594;2023-12-29T08:34:02;99906.22;;;21.61;44.00
20889;BME280;10604;51.976;7.594;2023-12-29T08:36:27;99903.25;;;20.73;44.70
20889;BME280;10604;51.976;7.594;2023-12-29T08:38:52;99906.75;;;20.94;45.10
20889;BME280;10604;51.976;7.594;2023-12-29T08:41:18;99897.69;;;21.86;43.73
20889;BME280;10604;51.976;7.594;2023-12-29T08:43:43;99905.50;;;22.85;42.33
20889;BME280;10604;51.976;7.594;2023-12-29T08:46:08;99910.88;;;22.76;41.79
20889;BME280;10604;51.976;7.594;2023-12-29T08:48:34;99911.16;;;22.82;42.22
20889;BME280;10604;51.976;7.594;2023-12-29T08:50:59;99914.56;;;22.65;42.49
20889;BME280;10604;51.976;7.594;2023-12-29T08:53:24;99898.09;;;21.91;43.14
20889;BME280;10604;51.976;7.594;2023-12-29T08:55:50;99898.91;;;21.82;43.38
20889;BME280;10604;51.976;7.594;2023-12-29T08:58:15;99894.75;;;21.99;43.65
20889;BME280;10604;51.976;7.594;2023-12-29T09:00:40;99898.03;;;21.53;44.38
20889;BME280;10604;51.976;7.594;2023-12-29T09:03:06;99904.38;;;22.01;43.93
20889;BME280;10604;51.976;7.594;2023-12-29T09:05:31;99893.00;;;21.29;44.99
20889;BME280;10604;51.976;7.594;2023-12-29T09:07:56;99894.88;;;21.38;45.03
20889;BME280;10604;51.976;7.594;2023-12-29T09:10:21;99912.91;;;20.43;46.66
20889;BME280;10604;51.976;7.594;2023-12-29T09:12:47;99908.69;;;21.83;44.55
20889;BME280;10604;51.976;7.594;2023-12-29T09:15:13;99913.84;;;22.73;42.92
20889;BME280;10604;51.976;7.594;2023-12-29T09:17:38;99921.91;;;22.05;43.75
20889;BME280;10604;51.976;7.594;2023-12-29T09:20:04;99918.16;;;21.37;45.41
20889;BME280;10604;51.976;7.594;2023-12-29T09:22:29;99930.78;;;21.56;45.03
20889;BME280;10604;51.976;7.594;2023-12-29T09:24:54;99936.38;;;22.43;43.83
20889;BME280;10604;51.976;7.594;2023-12-29T09:27:20;99929.09;;;21.45;44.51
20889;BME280;10604;51.976;7.594;2023-12-29T09:29:45;99923.22;;;21.71;44.35
20889;BME280;10604;51.976;7.594;2023-12-29T09:32:11;99917.78;;;21.52;45.14
20889;BME280;10604;51.976;7.594;2023-12-29T09:34:36;99909.38;;;21.66;45.24
20889;BME280;10604;51.976;7.594;2023-12-29T09:37:01;99915.19;;;21.31;45.56
20889;BME280;10604;51.976;7.594;2023-12-29T09:39:26;99916.53;;;22.24;44.08
20889;BME280;10604;51.976;7.594;2023-12-29T09:41:52;99924.19;;;22.19;44.32
20889;BME280;10604;51.976;7.594;2023-12-29T09:44:19;99921.84;;;21.86;45.04
20889;BME280;10604;51.976;7.594;2023-12-29T09:46:45;99920.19;;;22.04;44.30
20889;BME280;10604;51.976;7.594;2023-12-29T09:49:14;99915.81;;;21.54;45.50
20889;BME280;10604;51.976;7.594;2023-12-29T09:51:40;99921.50;;;21.70;45.28
20889;BME280;10604;51.976;7.594;2023-12-29T09:54:06;99919.69;;;21.30;45.48
20889;BME280;10604;51.976;7.594;2023-12-29T09:56:33;99920.03;;;21.96;44.67
20889;BME280;10604;51.976;7.594;2023-12-29T09:58:59;99914.53;;;21.18;45.28
20889;BME280;10604;51.976;7.594;2023-12-29T10:01:24;99901.41;;;20.94;45.39
20889;BME280;10604;51.976;7.594;2023-12-29T10:03:52;99922.19;;;21.01;45.65
20889;BME280;10604;51.976;7.594;2023-12-29T10:06:19;99923.09;;;20.91;46.02
20889;BME280;10604;51.976;7.594;2023-12-29T10:08:46;99932.09;;;22.21;44.30
20889;BME280;10604;51.976;7.594;2023-12-29T10:11:13;99925.31;;;22.46;43.85
20889;BME280;10604;51.976;7.594;2023-12-29T10:13:39;99919.94;;;22.46;43.67
20889;BME280;10604;51.976;7.594;2023-12-29T10:16:08;99915.25;;;20.99;44.73
20889;BME280;10604;51.976;7.594;2023-12-29T10:18:38;99908.91;;;22.49;43.18
20889;BME280;10604;51.976;7.594;2023-12-29T10:23:35;99896.94;;;21.65;44.05
20889;BME280;10604;51.976;7.594;2023-12-29T10:26:01;99914.81;;;23.00;42.21
20889;BME280;10604;51.976;7.594;2023-12-29T10:28:27;99905.94;;;22.52;42.81
20889;BME280;10604;51.976;7.594;2023-12-29T10:30:53;99902.66;;;22.39;43.19
20889;BME280;10604;51.976;7.594;2023-12-29T10:33:21;99890.78;;;22.03;42.58
20889;BME280;10604;51.976;7.594;2023-12-29T10:35:59;99895.31;;;22.41;42.14
20889;BME280;10604;51.976;7.594;2023-12-29T10:38:27;99900.13;;;22.66;42.31
20889;BME280;10604;51.976;7.594;2023-12-29T10:40:53;99892.34;;;22.34;43.06
20889;BME280;10604;51.976;7.594;2023-12-29T10:43:24;99885.84;;;22.17;42.90
20889;BME280;10604;51.976;7.594;2023-12-29T10:45:49;99894.81;;;21.78;42.63
20889;BME280;10604;51.976;7.594;2023-12-29T10:48:23;99890.66;;;21.55;42.89
20889;BME280;10604;51.976;7.594;2023-12-29T10:50:49;99898.72;;;22.04;43.05
20889;BME280;10604;51.976;7.594;2023-12-29T10:53:14;99888.53;;;22.56;42.03
20889;BME280;10604;51.976;7.594;2023-12-29T10:55:42;99900.97;;;20.89;44.49
20889;BME280;10604;51.976;7.594;2023-12-29T10:58:07;99892.84;;;21.89;43.63
20889;BME280;10604;51.976;7.594;2023-12-29T11:00:32;99902.25;;;20.94;45.18
20889;BME280;10604;51.976;7.594;2023-12-29T11:02:58;99911.72;;;20.36;45.88
20889;BME280;10604;51.976;7.594;2023-12-29T11:05:26;99908.91;;;22.30;43.58
20889;BME280;10604;51.976;7.594;2023-12-29T11:07:52;99908.06;;;22.19;43.02
20889;BME280;10604;51.976;7.594;2023-12-29T11:10:19;99890.78;;;22.60;42.88
20889;BME280;10604;51.976;7.594;2023-12-29T11:12:45;99908.34;;;22.55;42.07
20889;BME280;10604;51.976;7.594;2023-12-29T11:15:11;99902.56;;;21.62;43.16
20889;BME280;10604;51.976;7.594;2023-12-29T11:17:38;99909.63;;;21.02;44.00
20889;BME280;10604;51.976;7.594;2023-12-29T11:20:04;99898.13;;;21.41;43.70
20889;BME280;10604;51.976;7.594;2023-12-29T11:22:30;99909.44;;;22.72;41.73
20889;BME280;10604;51.976;7.594;2023-12-29T11:24:56;99901.22;;;22.92;41.37
20889;BME280;10604;51.976;7.594;2023-12-29T11:27:25;99917.97;;;22.29;42.70
20889;BME280;10604;51.976;7.594;2023-12-29T11:29:50;99914.19;;;21.72;43.56
20889;BME280;10604;51.976;7.594;2023-12-29T11:32:17;99913.88;;;22.44;42.77
20889;BME280;10604;51.976;7.594;2023-12-29T11:34:46;99918.59;;;23.54;40.97
20889;BME280;10604;51.976;7.594;2023-12-29T11:39:46;99908.00;;;21.81;43.35
20889;BME280;10604;51.976;7.594;2023-12-29T11:42:26;99896.00;;;23.28;41.30
20889;BME280;10604;51.976;7.594;2023-12-29T11:44:54;99890.16;;;23.05;41.52
20889;BME280;10604;51.976;7.594;2023-12-29T11:47:35;99901.00;;;22.28;42.62
20889;BME280;10604;51.976;7.594;2023-12-29T11:50:01;99892.47;;;21.14;43.35
20889;BME280;10604;51.976;7.594;2023-12-29T11:52:34;99884.25;;;22.73;41.29
20889;BME280;10604;51.976;7.594;2023-12-29T11:55:12;99881.44;;;22.55;41.24
20889;BME280;10604;51.976;7.594;2023-12-29T11:57:38;99892.09;;;21.59;42.62
20889;BME280;10604;51.976;7.594;2023-12-29T12:00:05;99889.13;;;22.21;42.33
20889;BME280;10604;51.976;7.594;2023-12-29T12:02:30;99899.31;;;22.37;41.95
20889;BME280;10604;51.976;7.594;2023-12-29T12:04:56;99898.44;;;22.07;41.14
20889;BME280;10604;51.976;7.594;2023-12-29T12:09:49;99894.88;;;21.47;42.71
20889;BME280;10604;51.976;7.594;2023-12-29T12:12:37;99895.91;;;22.35;40.97
20889;BME280;10604;51.976;7.594;2023-12-29T12:15:00;99885.13;;;21.96;41.28
20889;BME280;10604;51.976;7.594;2023-12-29T12:17:33;99891.22;;;21.48;41.94
20889;BME280;10604;51.976;7.594;2023-12-29T12:20:16;99891.59;;;22.99;40.12
20889;BME280;10604;51.976;7.594;2023-12-29T12:22:42;99885.47;;;23.44;39.11
20889;BME280;10604;51.976;7.594;2023-12-29T12:25:08;99884.81;;;21.80;40.83
20889;BME280;10604;51.976;7.594;2023-12-29T12:27:37;99885.63;;;21.71;41.60
20889;BME280;10604;51.976;7.594;2023-12-29T12:30:02;99894.75;;;22.66;40.40
20889;BME280;10604;51.976;7.594;2023-12-29T12:32:28;99875.44;;;22.99;39.99
20889;BME280;10604;51.976;7.594;2023-12-29T12:34:54;99876.31;;;23.64;39.02
20889;BME280;10604;51.976;7.594;2023-12-29T12:37:27;99890.53;;;22.15;40.32
20889;BME280;10604;51.976;7.594;2023-12-29T12:39:52;99879.72;;;22.92;40.03
20889;BME280;10604;51.976;7.594;2023-12-29T12:42:21;99884.94;;;23.31;39.75
20889;BME280;10604;51.976;7.594;2023-12-29T12:44:47;99892.81;;;23.52;39.47
20889;BME280;10604;51.976;7.594;2023-12-29T12:47:15;99892.50;;;22.52;39.70
20889;BME280;10604;51.976;7.594;2023-12-29T12:49:42;99871.91;;;23.36;39.34
20889;BME280;10604;51.976;7.594;2023-12-29T12:52:08;99875.97;;;24.12;38.87
20889;BME280;10604;51.976;7.594;2023-12-29T12:54:33;99878.59;;;23.59;38.87
20889;BME280;10604;51.976;7.594;2023-12-29T12:56:58;99878.44;;;24.24;38.20
20889;BME280;10604;51.976;7.594;2023-12-29T12:59:24;99870.19;;;23.35;38.67
20889;BME280;10604;51.976;7.594;2023-12-29T13:01:49;99885.06;;;21.77;41.14
20889;BME280;10604;51.976;7.594;2023-12-29T13:04:15;99882.31;;;22.36;40.55